Terminal Aerodrome Forecast
Issued by NWS

Home | Current Version | Previous Version | Text Only | Print | Product List | Glossary On
Versions: 1 2 3 4 5 6 7 8 9 10 11 12 13 14 15 16 17 18 19 20 21 22 23 24 25 26 27 28 29 30 31 32
000
FTUS46 KEKA 280542
TAFACV
TAF
KACV 280542Z 2806/2906 16008KT 6SM BR BKN006
     FM281000 18003KT 4SM BR OVC003
      TEMPO 2812/2816 1SM BR OVC001
     FM281800 27005KT 6SM BR BKN003
     FM282000 29006KT 6SM HZ SCT008
     FM290200 17003KT 4SM BR BKN006=

USA.gov is the U.S. government's official web portal to all federal, state and local government web resources and services.